createdAt,value
2022-11-28T00:01:24.912Z,4.88
2022-11-28T00:03:51.882Z,4.80
2022-11-28T00:06:19.410Z,5.10
2022-11-28T00:08:46.371Z,4.77
2022-11-28T00:11:16.175Z,4.32
2022-11-28T00:13:44.235Z,4.65
2022-11-28T00:16:16.238Z,4.07
2022-11-28T00:18:43.951Z,4.28
2022-11-28T00:21:13.214Z,4.40
2022-11-28T00:23:40.378Z,4.78
2022-11-28T00:26:10.947Z,6.30
2022-11-28T00:28:38.081Z,6.00
2022-11-28T00:31:05.583Z,6.57
2022-11-28T00:33:35.118Z,5.33
2022-11-28T00:36:04.530Z,6.50
2022-11-28T00:38:31.683Z,7.05
2022-11-28T00:41:06.642Z,6.72
2022-11-28T00:43:33.847Z,7.55
2022-11-28T00:46:00.569Z,7.17
2022-11-28T00:48:27.711Z,9.18
2022-11-28T00:50:55.727Z,8.05
2022-11-28T00:53:22.538Z,7.90
2022-11-28T00:55:49.267Z,5.85
2022-11-28T00:58:16.015Z,5.40
2022-11-28T01:00:42.830Z,8.07
2022-11-28T01:03:09.616Z,8.80
2022-11-28T01:05:43.628Z,7.07
2022-11-28T01:08:10.960Z,5.50
2022-11-28T01:10:42.250Z,5.93
2022-11-28T01:13:10.002Z,7.00
2022-11-28T01:15:39.643Z,7.47
2022-11-28T01:18:06.416Z,5.35
2022-11-28T01:20:33.178Z,9.45
2022-11-28T01:22:59.876Z,8.50
2022-11-28T01:25:26.702Z,4.82
2022-11-28T01:27:53.631Z,4.30
2022-11-28T01:30:20.496Z,7.07
2022-11-28T01:32:47.136Z,6.63
2022-11-28T01:35:14.030Z,7.03
2022-11-28T01:37:40.882Z,8.75
2022-11-28T01:40:09.013Z,8.82
2022-11-28T01:42:35.784Z,5.57
2022-11-28T01:45:14.731Z,7.70
2022-11-28T01:47:41.651Z,6.10
2022-11-28T01:50:09.558Z,7.13
2022-11-28T01:52:39.793Z,8.10
2022-11-28T01:55:07.820Z,7.20
2022-11-28T01:57:34.911Z,9.27
2022-11-28T02:00:07.866Z,9.43
2022-11-28T02:02:50.469Z,10.50
2022-11-28T02:05:19.099Z,9.30
2022-11-28T02:07:47.435Z,8.43
2022-11-28T02:10:28.735Z,9.65
2022-11-28T02:13:07.240Z,8.80
2022-11-28T02:16:05.039Z,9.38
2022-11-28T02:19:12.990Z,9.10
2022-11-28T02:21:54.826Z,9.23
2022-11-28T02:24:27.407Z,9.45
2022-11-28T02:27:09.213Z,8.37
2022-11-28T02:30:14.820Z,8.68
2022-11-28T02:33:03.225Z,7.70
2022-11-28T02:35:49.037Z,8.35
2022-11-28T02:38:30.713Z,8.50
2022-11-28T02:41:06.096Z,7.77
2022-11-28T02:43:50.688Z,8.95
2022-11-28T02:46:28.577Z,8.20
2022-11-28T02:48:59.895Z,8.48
2022-11-28T02:51:45.264Z,8.60
2022-11-28T02:54:15.525Z,8.13
2022-11-28T02:56:49.560Z,7.97
2022-11-28T02:59:38.013Z,7.90
2022-11-28T03:02:16.911Z,8.57
2022-11-28T03:04:55.715Z,7.50
2022-11-28T03:07:40.971Z,7.77
2022-11-28T03:10:19.691Z,7.10
2022-11-28T03:13:13.004Z,6.95
2022-11-28T03:16:13.045Z,7.68
2022-11-28T03:18:44.919Z,7.15
2022-11-28T03:21:29.847Z,8.20
2022-11-28T03:24:37.993Z,7.47
2022-11-28T03:27:31.263Z,6.65
2022-11-28T03:30:04.167Z,9.85
2022-11-28T03:32:35.515Z,13.65
2022-11-28T03:35:30.540Z,13.67
2022-11-28T03:38:13.088Z,16.33
2022-11-28T03:40:44.822Z,16.90
2022-11-28T03:43:17.523Z,20.10
2022-11-28T03:45:49.170Z,22.90
2022-11-28T03:48:26.557Z,27.27
2022-11-28T03:51:14.539Z,27.27
2022-11-28T03:54:06.560Z,23.02
2022-11-28T03:56:57.625Z,17.30
2022-11-28T03:59:37.054Z,17.48
2022-11-28T04:02:14.482Z,18.73
2022-11-28T04:04:56.914Z,18.58
2022-11-28T04:07:45.176Z,10.68
2022-11-28T04:10:35.796Z,8.23
2022-11-28T04:13:14.218Z,8.98
2022-11-28T04:15:52.692Z,9.13
2022-11-28T04:18:33.932Z,10.20
2022-11-28T04:21:20.096Z,9.48
2022-11-28T04:23:49.361Z,9.05
2022-11-28T04:26:24.586Z,10.95
2022-11-28T04:28:54.002Z,13.17
2022-11-28T04:31:22.878Z,13.63
2022-11-28T04:33:57.357Z,14.13
2022-11-28T04:36:26.877Z,14.90
2022-11-28T04:38:57.529Z,14.63
2022-11-28T04:41:34.526Z,11.53
2022-11-28T04:44:09.713Z,9.02
2022-11-28T04:46:43.184Z,8.70
2022-11-28T04:49:10.990Z,8.32
2022-11-28T04:51:56.424Z,8.00
2022-11-28T04:54:29.796Z,8.27
2022-11-28T04:57:02.175Z,11.52
2022-11-28T04:59:31.606Z,10.90
2022-11-28T05:02:03.166Z,9.95
2022-11-28T05:04:30.394Z,9.73
2022-11-28T05:07:05.774Z,9.60
2022-11-28T05:09:32.690Z,10.15
2022-11-28T05:11:59.595Z,16.48
2022-11-28T05:14:26.324Z,22.80
2022-11-28T05:16:53.175Z,20.75
2022-11-28T05:19:19.967Z,17.97
2022-11-28T05:21:46.814Z,15.50
2022-11-28T05:24:13.714Z,14.52
2022-11-28T05:26:40.772Z,13.45
2022-11-28T05:29:07.630Z,11.50
2022-11-28T05:31:34.350Z,11.07
2022-11-28T05:34:01.139Z,11.40
2022-11-28T05:36:27.935Z,12.88
2022-11-28T05:38:54.737Z,16.35
2022-11-28T05:41:27.549Z,21.85
2022-11-28T05:43:55.981Z,26.03
2022-11-28T05:46:23.655Z,20.15
2022-11-28T05:48:50.383Z,22.17
2022-11-28T05:51:17.990Z,19.48
2022-11-28T05:53:44.785Z,18.45
2022-11-28T05:56:16.931Z,16.93
2022-11-28T05:58:43.863Z,10.30
2022-11-28T06:01:15.014Z,10.07
2022-11-28T06:03:42.868Z,9.30
2022-11-28T06:06:22.082Z,9.93
2022-11-28T06:08:51.576Z,10.77
2022-11-28T06:11:19.846Z,9.85
2022-11-28T06:13:48.089Z,9.73
2022-11-28T06:16:21.521Z,8.98
2022-11-28T06:18:52.119Z,8.82
2022-11-28T06:21:19.006Z,8.20
2022-11-28T06:23:46.706Z,8.25
2022-11-28T06:26:16.246Z,8.32
2022-11-28T06:28:43.769Z,9.50
2022-11-28T06:31:12.454Z,13.00
2022-11-28T06:33:39.556Z,8.83
2022-11-28T06:36:06.966Z,7.20
2022-11-28T06:38:34.528Z,6.70
2022-11-28T06:41:04.519Z,6.65
2022-11-28T06:43:31.563Z,7.13
2022-11-28T06:45:58.301Z,6.77
2022-11-28T06:48:25.765Z,9.18
2022-11-28T06:50:53.290Z,7.65
2022-11-28T06:53:20.573Z,7.35
2022-11-28T06:55:47.451Z,7.05
2022-11-28T06:58:14.285Z,6.20
2022-11-28T07:00:41.293Z,6.57
2022-11-28T07:03:08.096Z,6.18
2022-11-28T07:05:34.852Z,5.95
2022-11-28T07:08:01.679Z,5.95
2022-11-28T07:10:28.898Z,5.60
2022-11-28T07:13:05.160Z,6.05
2022-11-28T07:15:32.226Z,5.95
2022-11-28T07:17:59.023Z,6.05
2022-11-28T07:20:25.851Z,5.57
2022-11-28T07:22:53.559Z,5.77
2022-11-28T07:25:20.348Z,5.43
2022-11-28T07:27:47.109Z,5.65
2022-11-28T07:30:14.103Z,5.47
2022-11-28T07:32:41.322Z,6.30
2022-11-28T07:35:09.048Z,7.60
2022-11-28T07:37:36.309Z,11.38
2022-11-28T07:40:04.388Z,15.40
2022-11-28T07:42:31.207Z,15.45
2022-11-28T07:45:04.311Z,24.88
2022-11-28T07:47:31.457Z,32.40
2022-11-28T07:49:58.143Z,26.90
2022-11-28T07:52:26.125Z,23.63
2022-11-28T07:54:52.914Z,13.05
2022-11-28T07:57:19.762Z,7.55
2022-11-28T07:59:46.438Z,5.90
2022-11-28T08:02:13.598Z,5.45
2022-11-28T08:04:45.899Z,5.65
2022-11-28T08:07:15.638Z,6.18
2022-11-28T08:09:42.779Z,5.78
2022-11-28T08:12:09.816Z,6.17
2022-11-28T08:14:36.530Z,6.53
2022-11-28T08:17:03.363Z,6.53
2022-11-28T08:19:33.737Z,6.55
2022-11-28T08:22:02.132Z,6.00
2022-11-28T08:24:28.898Z,5.67
2022-11-28T08:26:55.679Z,5.93
2022-11-28T08:29:23.426Z,5.88
2022-11-28T08:31:50.152Z,5.78
2022-11-28T08:34:17.182Z,6.50
2022-11-28T08:36:44.146Z,5.87
2022-11-28T08:39:26.761Z,5.75
2022-11-28T08:41:57.380Z,5.72
2022-11-28T08:44:25.044Z,5.80
2022-11-28T08:46:52.519Z,5.88
2022-11-28T08:49:19.714Z,6.00
2022-11-28T08:51:46.524Z,6.05
2022-11-28T08:54:13.256Z,6.43
2022-11-28T08:56:39.961Z,6.13
2022-11-28T08:59:07.357Z,7.45
2022-11-28T09:01:34.614Z,6.88
2022-11-28T09:04:01.561Z,6.88
2022-11-28T09:06:28.769Z,6.72
2022-11-28T09:08:55.515Z,6.45
2022-11-28T09:11:23.435Z,6.07
2022-11-28T09:13:50.696Z,6.00
2022-11-28T09:16:17.832Z,6.90
2022-11-28T09:18:44.653Z,6.32
2022-11-28T09:21:13.526Z,7.22
2022-11-28T09:23:42.586Z,7.20
2022-11-28T09:26:10.949Z,6.60
2022-11-28T09:28:37.774Z,6.55
2022-11-28T09:31:06.512Z,7.43
2022-11-28T09:33:33.964Z,6.70
2022-11-28T09:36:05.770Z,6.80
2022-11-28T09:38:32.676Z,7.15
2022-11-28T09:41:01.304Z,7.05
2022-11-28T09:43:42.700Z,5.80
2022-11-28T09:46:15.346Z,7.00
2022-11-28T09:48:49.395Z,5.97
2022-11-28T09:51:25.956Z,6.32
2022-11-28T09:54:15.580Z,7.03
2022-11-28T09:56:46.490Z,6.65
2022-11-28T09:59:22.591Z,7.63
2022-11-28T10:01:58.050Z,7.18
2022-11-28T10:04:30.661Z,6.40
2022-11-28T10:07:08.451Z,6.82
2022-11-28T10:10:10.410Z,6.57
2022-11-28T10:13:02.800Z,6.22
2022-11-28T10:15:54.132Z,6.03
2022-11-28T10:18:35.806Z,6.00
2022-11-28T10:21:23.282Z,6.50
2022-11-28T10:23:53.123Z,5.93
2022-11-28T10:26:29.212Z,6.07
2022-11-28T10:28:59.906Z,6.00
2022-11-28T10:31:40.365Z,6.20
2022-11-28T10:34:25.084Z,6.57
2022-11-28T10:37:01.217Z,6.03
2022-11-28T10:39:28.521Z,6.00
2022-11-28T10:42:15.386Z,6.15
2022-11-28T10:45:13.999Z,6.78
2022-11-28T10:47:52.883Z,6.35
2022-11-28T10:50:38.603Z,5.90
2022-11-28T10:53:26.919Z,5.75
2022-11-28T10:55:56.394Z,5.97
2022-11-28T10:58:35.526Z,5.95
2022-11-28T11:01:03.449Z,5.43
2022-11-28T11:03:33.224Z,6.68
2022-11-28T11:06:00.346Z,7.00
2022-11-28T11:08:29.830Z,6.40
2022-11-28T11:11:14.814Z,5.93
2022-11-28T11:14:05.641Z,6.28
2022-11-28T11:16:52.044Z,6.20
2022-11-28T11:19:39.760Z,6.55
2022-11-28T11:22:22.737Z,6.47
2022-11-28T11:25:22.623Z,6.72
2022-11-28T11:27:50.568Z,6.70
2022-11-28T11:30:17.946Z,7.00
2022-11-28T11:32:51.397Z,6.00
2022-11-28T11:35:24.019Z,6.55
2022-11-28T11:37:51.155Z,6.80
2022-11-28T11:40:22.689Z,7.05
2022-11-28T11:42:58.648Z,6.93
2022-11-28T11:45:34.839Z,7.05
2022-11-28T11:48:03.696Z,8.43
2022-11-28T11:50:32.942Z,7.05
2022-11-28T11:53:02.603Z,7.72
2022-11-28T11:55:32.720Z,7.35
2022-11-28T11:58:05.940Z,7.15
2022-11-28T12:00:39.439Z,7.40
2022-11-28T12:03:15.256Z,6.85
2022-11-28T12:08:54.604Z,7.40
2022-11-28T12:11:54.195Z,6.95
2022-11-28T12:14:27.124Z,6.88
2022-11-28T12:17:40.609Z,7.10
2022-11-28T12:20:26.777Z,6.50
2022-11-28T12:23:31.103Z,7.72
2022-11-28T12:26:34.385Z,7.32
2022-11-28T12:29:12.179Z,7.47
2022-11-28T12:31:39.352Z,7.50
2022-11-28T12:34:24.243Z,7.65
2022-11-28T12:36:59.898Z,7.38
2022-11-28T12:39:56.548Z,7.35
2022-11-28T12:42:49.889Z,6.65
2022-11-28T12:45:31.787Z,7.38
2022-11-28T12:48:31.819Z,7.75
2022-11-28T12:51:26.065Z,7.68
2022-11-28T12:53:53.030Z,7.07
2022-11-28T12:56:35.947Z,6.97
2022-11-28T12:59:25.843Z,7.10
2022-11-28T13:02:19.413Z,7.18
2022-11-28T13:05:14.223Z,6.65
2022-11-28T13:08:02.493Z,7.25
2022-11-28T13:10:38.974Z,6.88
2022-11-28T13:13:17.793Z,7.05
2022-11-28T13:16:04.632Z,6.85
2022-11-28T13:18:41.196Z,6.72
2022-11-28T13:21:30.184Z,7.38
2022-11-28T13:24:07.476Z,7.40
2022-11-28T13:26:40.415Z,6.63
2022-11-28T13:29:33.468Z,7.60
2022-11-28T13:32:25.357Z,7.80
2022-11-28T13:34:53.110Z,8.10
2022-11-28T13:40:22.122Z,7.05
2022-11-28T13:43:08.151Z,7.15
2022-11-28T13:45:42.454Z,6.95
2022-11-28T13:49:14.048Z,7.18
2022-11-28T13:51:38.213Z,6.90
2022-11-28T13:54:25.136Z,7.72
2022-11-28T13:57:25.350Z,7.07
2022-11-28T14:00:24.183Z,7.65
2022-11-28T14:02:59.887Z,7.55
2022-11-28T14:05:37.252Z,7.45
2022-11-28T14:08:05.655Z,7.45
2022-11-28T14:10:40.619Z,8.05
2022-11-28T14:13:52.408Z,7.72
2022-11-28T14:16:37.867Z,8.32
2022-11-28T14:19:22.853Z,7.47
2022-11-28T14:22:05.071Z,8.27
2022-11-28T14:24:55.320Z,8.38
2022-11-28T14:27:35.331Z,7.60
2022-11-28T14:30:02.627Z,8.25
2022-11-28T14:32:32.542Z,8.27
2022-11-28T14:35:00.859Z,8.25
2022-11-28T14:37:28.641Z,7.57
2022-11-28T14:39:57.587Z,8.77
2022-11-28T14:45:43.406Z,7.93
2022-11-28T14:48:22.441Z,7.82
2022-11-28T14:51:00.656Z,8.85
2022-11-28T14:53:38.566Z,7.97
2022-11-28T14:56:27.943Z,8.75
2022-11-28T14:59:01.479Z,9.70
2022-11-28T15:01:55.609Z,8.43
2022-11-28T15:04:47.713Z,9.65
2022-11-28T15:07:52.514Z,8.98
2022-11-28T15:10:28.343Z,10.25
2022-11-28T15:13:07.552Z,9.32
2022-11-28T15:15:34.802Z,9.48
2022-11-28T15:18:04.722Z,8.57
2022-11-28T15:20:42.540Z,9.40
2022-11-28T15:23:24.071Z,9.38
2022-11-28T15:25:56.538Z,9.32
2022-11-28T15:28:28.158Z,9.93
2022-11-28T15:30:57.483Z,9.27
2022-11-28T15:33:25.962Z,8.68
2022-11-28T15:35:55.551Z,8.18
2022-11-28T15:38:22.830Z,9.00
2022-11-28T15:40:51.763Z,9.77
2022-11-28T15:43:19.227Z,9.43
2022-11-28T15:45:54.009Z,9.88
2022-11-28T15:48:40.205Z,10.68
2022-11-28T15:51:08.576Z,10.07
2022-11-28T15:53:40.825Z,10.70
2022-11-28T15:56:15.327Z,10.60
2022-11-28T15:58:43.887Z,11.35
2022-11-28T16:01:14.744Z,11.05
2022-11-28T16:04:03.093Z,10.13
2022-11-28T16:06:32.951Z,12.52
2022-11-28T16:09:04.140Z,11.13
2022-11-28T16:11:32.905Z,12.10
2022-11-28T16:14:05.947Z,11.23
2022-11-28T16:16:36.194Z,11.90
2022-11-28T16:19:24.062Z,11.18
2022-11-28T16:22:20.794Z,10.07
2022-11-28T16:24:51.036Z,10.50
2022-11-28T16:27:32.295Z,11.10
2022-11-28T16:30:00.706Z,11.05
2022-11-28T16:32:38.599Z,12.07
2022-11-28T16:35:06.935Z,11.00
2022-11-28T16:37:33.887Z,11.63
2022-11-28T16:40:13.182Z,11.70
2022-11-28T16:42:40.054Z,11.32
2022-11-28T16:45:26.511Z,11.80
2022-11-28T16:48:13.658Z,11.57
2022-11-28T16:51:07.749Z,11.98
2022-11-28T16:53:48.437Z,12.32
2022-11-28T16:56:25.200Z,10.88
2022-11-28T16:59:00.568Z,12.27
2022-11-28T17:01:29.096Z,12.90
2022-11-28T17:03:57.747Z,12.23
2022-11-28T17:06:36.794Z,12.50
2022-11-28T17:09:07.100Z,12.73
2022-11-28T17:11:36.954Z,13.07
2022-11-28T17:14:10.139Z,13.23
2022-11-28T17:16:40.401Z,13.05
2022-11-28T17:19:07.916Z,13.13
2022-11-28T17:21:41.695Z,16.52
2022-11-28T17:24:21.579Z,15.30
2022-11-28T17:26:50.691Z,15.02
2022-11-28T17:29:19.034Z,14.35
2022-11-28T17:31:47.528Z,16.70
2022-11-28T17:34:15.803Z,13.35
2022-11-28T17:36:43.358Z,12.43
2022-11-28T17:39:11.008Z,12.80
2022-11-28T17:41:38.306Z,11.75
2022-11-28T17:44:05.351Z,12.27
2022-11-28T17:46:32.203Z,13.15
2022-11-28T17:48:59.167Z,13.32
2022-11-28T17:51:26.275Z,13.85
2022-11-28T17:53:53.136Z,12.68
2022-11-28T17:56:19.901Z,12.85
2022-11-28T17:58:47.018Z,12.68
2022-11-28T18:01:19.119Z,13.20
2022-11-28T18:03:46.004Z,11.57
2022-11-28T18:06:17.720Z,11.93
2022-11-28T18:08:46.075Z,12.68
2022-11-28T18:11:14.211Z,12.32
2022-11-28T18:13:42.524Z,11.77
2022-11-28T18:16:11.637Z,11.93
2022-11-28T18:18:39.271Z,12.52
2022-11-28T18:21:08.735Z,13.18
2022-11-28T18:23:39.715Z,13.95
2022-11-28T18:26:13.694Z,15.32
2022-11-28T18:28:41.571Z,15.70
2022-11-28T18:31:15.781Z,15.35
2022-11-28T18:33:43.040Z,14.55
2022-11-28T18:36:26.826Z,13.63
2022-11-28T18:39:02.089Z,13.60
2022-11-28T18:41:29.236Z,14.18
2022-11-28T18:43:57.487Z,15.30
2022-11-28T18:46:26.088Z,16.60
2022-11-28T18:48:53.839Z,15.02
2022-11-28T18:51:26.741Z,15.68
2022-11-28T18:53:54.959Z,15.85
2022-11-28T18:56:23.854Z,14.45
2022-11-28T18:58:52.988Z,13.32
2022-11-28T19:01:30.553Z,13.80
2022-11-28T19:04:16.970Z,12.65
2022-11-28T19:06:44.830Z,13.43
2022-11-28T19:09:14.149Z,13.82
2022-11-28T19:11:41.857Z,13.57
2022-11-28T19:14:14.354Z,13.73
2022-11-28T19:16:41.253Z,14.33
2022-11-28T19:19:08.327Z,14.35
2022-11-28T19:21:36.141Z,16.13
2022-11-28T19:24:03.609Z,15.18
2022-11-28T19:26:33.969Z,14.90
2022-11-28T19:29:01.706Z,14.77
2022-11-28T19:31:34.297Z,15.73
2022-11-28T19:34:06.810Z,15.65
2022-11-28T19:36:36.370Z,15.95
2022-11-28T19:39:04.568Z,16.25
2022-11-28T19:41:32.362Z,15.57
2022-11-28T19:44:00.196Z,14.93
2022-11-28T19:46:34.985Z,16.35
2022-11-28T19:49:05.121Z,15.48
2022-11-28T19:51:32.300Z,15.40
2022-11-28T19:54:03.295Z,17.02
2022-11-28T19:56:31.549Z,16.70
2022-11-28T19:58:58.671Z,18.50
2022-11-28T20:01:26.021Z,18.92
2022-11-28T20:03:53.976Z,19.10
2022-11-28T20:06:23.628Z,18.60
2022-11-28T20:08:51.939Z,18.27
2022-11-28T20:11:21.946Z,18.45
2022-11-28T20:13:49.512Z,17.17
2022-11-28T20:16:18.257Z,16.08
2022-11-28T20:18:45.492Z,17.25
2022-11-28T20:21:16.371Z,21.25
2022-11-28T20:23:47.015Z,29.90
2022-11-28T20:26:15.081Z,33.03
2022-11-28T20:28:42.981Z,32.72
2022-11-28T20:31:23.784Z,33.90
2022-11-28T20:33:52.319Z,33.15
2022-11-28T20:36:21.662Z,33.40
2022-11-28T20:38:49.159Z,34.40
2022-11-28T20:41:18.097Z,30.17
2022-11-28T20:43:45.329Z,25.77
2022-11-28T20:46:13.408Z,23.08
2022-11-28T20:48:40.397Z,22.20
2022-11-28T20:51:11.440Z,19.83
2022-11-28T20:53:41.139Z,18.73
2022-11-28T20:56:19.667Z,16.75
2022-11-28T20:58:46.849Z,16.17
2022-11-28T21:01:15.066Z,17.10
2022-11-28T21:03:41.852Z,17.27
2022-11-28T21:06:09.335Z,18.30
2022-11-28T21:08:36.696Z,18.77
2022-11-28T21:11:08.625Z,17.20
2022-11-28T21:13:35.617Z,18.67
2022-11-28T21:16:20.086Z,17.70
2022-11-28T21:18:47.310Z,17.15
2022-11-28T21:21:22.638Z,17.00
2022-11-28T21:23:49.436Z,18.88
2022-11-28T21:26:24.941Z,18.65
2022-11-28T21:28:57.578Z,17.25
2022-11-28T21:31:27.177Z,18.20
2022-11-28T21:33:55.896Z,17.88
2022-11-28T21:36:23.525Z,18.25
2022-11-28T21:38:54.002Z,17.55
2022-11-28T21:41:21.393Z,17.00
2022-11-28T21:43:48.557Z,17.85
2022-11-28T21:46:15.957Z,17.52
2022-11-28T21:48:43.416Z,18.38
2022-11-28T21:51:22.466Z,17.63
2022-11-28T21:53:49.851Z,17.02
2022-11-28T21:56:17.979Z,16.77
2022-11-28T21:58:44.777Z,15.85
2022-11-28T22:01:14.214Z,15.98
2022-11-28T22:03:43.794Z,16.58
2022-11-28T22:06:15.457Z,16.40
2022-11-28T22:08:42.967Z,16.20
2022-11-28T22:11:13.313Z,16.38
2022-11-28T22:13:48.093Z,16.13
2022-11-28T22:16:20.998Z,16.67
2022-11-28T22:18:49.929Z,16.83
2022-11-28T22:24:05.508Z,15.15
2022-11-28T22:26:32.557Z,17.23
2022-11-28T22:29:00.917Z,15.82
2022-11-28T22:31:28.039Z,15.88
2022-11-28T22:33:55.030Z,14.98
2022-11-28T22:36:23.256Z,16.65
2022-11-28T22:38:55.428Z,15.55
2022-11-28T22:41:29.044Z,14.68
2022-11-28T22:44:00.415Z,14.95
2022-11-28T22:46:27.849Z,15.30
2022-11-28T22:48:54.990Z,14.87
2022-11-28T22:51:25.032Z,13.60
2022-11-28T22:53:54.693Z,13.52
2022-11-28T22:56:24.104Z,13.00
2022-11-28T22:58:51.572Z,14.30
2022-11-28T23:01:21.674Z,12.73
2022-11-28T23:03:50.086Z,12.88
2022-11-28T23:06:20.829Z,13.80
2022-11-28T23:08:54.172Z,13.93
2022-11-28T23:11:24.854Z,12.98
2022-11-28T23:13:52.428Z,12.40
2022-11-28T23:16:23.362Z,13.65
2022-11-28T23:18:52.287Z,13.02
2022-11-28T23:21:21.373Z,13.30
2022-11-28T23:23:48.788Z,13.20
2022-11-28T23:26:22.005Z,13.17
2022-11-28T23:28:49.531Z,12.63
2022-11-28T23:31:22.543Z,12.55
2022-11-28T23:33:50.014Z,12.30
2022-11-28T23:36:22.467Z,12.27
2022-11-28T23:38:51.482Z,11.90
2022-11-28T23:41:18.587Z,11.93
2022-11-28T23:43:46.114Z,12.05
2022-11-28T23:46:14.140Z,11.15
2022-11-28T23:48:42.587Z,12.43
2022-11-28T23:51:12.492Z,10.93
2022-11-28T23:53:39.978Z,11.70
2022-11-28T23:56:13.420Z,11.20
2022-11-28T23:58:41.018Z,12.15
